createdAt,value
2019-04-07T00:02:22.452Z,51.23
2019-04-07T00:04:53.518Z,56.50
2019-04-07T00:07:27.479Z,48.25
2019-04-07T00:09:58.908Z,49.98
2019-04-07T00:15:02.647Z,53.63
2019-04-07T00:17:33.890Z,50.23
2019-04-07T00:20:07.151Z,46.18
2019-04-07T00:22:38.326Z,44.53
2019-04-07T00:25:09.528Z,49.58
2019-04-07T00:27:40.610Z,53.17
2019-04-07T00:30:11.330Z,54.50
2019-04-07T00:32:42.808Z,47.10
2019-04-07T00:35:23.216Z,58.15
2019-04-07T00:37:46.701Z,50.67
2019-04-07T00:40:18.438Z,45.20
2019-04-07T00:42:49.310Z,52.62
2019-04-07T00:45:20.709Z,55.10
2019-04-07T00:47:51.757Z,52.75
2019-04-07T00:50:23.138Z,57.70
2019-04-07T00:52:54.649Z,68.02
2019-04-07T00:55:26.271Z,55.75
2019-04-07T00:57:58.424Z,107.30
2019-04-07T01:00:32.419Z,57.15
2019-04-07T01:03:04.080Z,43.92
2019-04-07T01:05:38.478Z,62.33
2019-04-07T01:08:09.640Z,57.10
2019-04-07T01:10:40.633Z,60.33
2019-04-07T01:13:12.116Z,54.50
2019-04-07T01:15:43.671Z,57.98
2019-04-07T01:18:14.423Z,61.25
2019-04-07T01:20:46.863Z,57.55
2019-04-07T01:23:18.177Z,60.25
2019-04-07T01:25:51.041Z,62.83
2019-04-07T01:28:22.470Z,56.20
2019-04-07T01:30:53.386Z,69.97
2019-04-07T01:33:24.840Z,60.58
2019-04-07T01:35:55.466Z,55.92
2019-04-07T01:38:26.918Z,55.52
2019-04-07T01:41:06.356Z,58.33
2019-04-07T01:43:39.333Z,52.00
2019-04-07T01:46:21.755Z,40.73
2019-04-07T01:49:09.122Z,54.20
2019-04-07T01:51:43.992Z,54.18
2019-04-07T01:54:26.165Z,56.15
2019-04-07T01:57:16.787Z,51.13
2019-04-07T02:00:07.371Z,58.73
2019-04-07T02:02:42.874Z,53.23
2019-04-07T02:05:31.588Z,48.85
2019-04-07T02:08:04.518Z,46.45
2019-04-07T02:10:55.946Z,54.80
2019-04-07T02:13:38.084Z,46.95
2019-04-07T02:16:13.086Z,54.33
2019-04-07T02:18:58.649Z,55.17
2019-04-07T02:21:45.613Z,50.38
2019-04-07T02:24:37.228Z,50.12
2019-04-07T02:27:11.946Z,57.85
2019-04-07T02:30:03.890Z,56.53
2019-04-07T02:32:53.157Z,60.70
2019-04-07T02:35:32.389Z,56.58
2019-04-07T02:38:14.942Z,58.50
2019-04-07T02:40:48.769Z,56.65
2019-04-07T02:43:21.592Z,60.75
2019-04-07T02:46:00.034Z,57.08
2019-04-07T02:48:48.969Z,65.85
2019-04-07T02:51:38.363Z,58.10
2019-04-07T02:54:27.903Z,56.53
2019-04-07T02:57:03.584Z,57.00
2019-04-07T02:59:40.137Z,63.87
2019-04-07T03:02:16.272Z,61.45
2019-04-07T03:04:48.866Z,65.20
2019-04-07T03:07:27.363Z,65.08
2019-04-07T03:10:00.314Z,64.32
2019-04-07T03:12:35.566Z,49.00
2019-04-07T03:15:11.479Z,67.20
2019-04-07T03:17:59.359Z,63.45
2019-04-07T03:20:34.523Z,63.15
2019-04-07T03:23:22.548Z,68.62
2019-04-07T03:26:02.216Z,67.35
2019-04-07T03:28:52.582Z,59.45
2019-04-07T03:31:27.047Z,59.88
2019-04-07T03:34:01.361Z,60.60
2019-04-07T03:39:26.533Z,61.77
2019-04-07T03:41:59.194Z,62.48
2019-04-07T03:44:51.204Z,56.40
2019-04-07T03:47:39.794Z,69.70
2019-04-07T03:50:18.690Z,69.22
2019-04-07T03:53:03.287Z,67.97
2019-04-07T03:55:47.836Z,82.35
2019-04-07T03:58:37.576Z,79.90
2019-04-07T04:01:27.360Z,82.55
2019-04-07T04:04:00.727Z,103.60
2019-04-07T04:06:50.153Z,91.40
2019-04-07T04:09:42.202Z,89.87
2019-04-07T04:12:24.502Z,75.92
2019-04-07T04:15:01.577Z,81.57
2019-04-07T04:17:32.753Z,85.45
2019-04-07T04:20:04.294Z,75.45
2019-04-07T04:22:35.838Z,71.77
2019-04-07T04:25:08.490Z,65.72
2019-04-07T04:27:39.835Z,66.60
2019-04-07T04:30:12.224Z,63.73
2019-04-07T04:32:43.664Z,71.55
2019-04-07T04:35:14.881Z,64.05
2019-04-07T04:37:51.152Z,73.05
2019-04-07T04:40:22.267Z,69.45
2019-04-07T04:42:54.002Z,56.45
2019-04-07T04:45:26.293Z,70.65
2019-04-07T04:47:57.677Z,63.52
2019-04-07T04:50:29.866Z,59.08
2019-04-07T04:53:02.090Z,63.57
2019-04-07T04:55:33.812Z,54.33
2019-04-07T04:58:07.295Z,65.67
2019-04-07T05:00:40.425Z,57.05
2019-04-07T05:03:13.840Z,59.63
2019-04-07T05:05:45.704Z,43.45
2019-04-07T05:08:20.399Z,61.60
2019-04-07T05:10:53.257Z,59.93
2019-04-07T05:13:25.059Z,59.77
2019-04-07T05:15:56.081Z,59.77
2019-04-07T05:18:27.762Z,52.65
2019-04-07T05:20:59.760Z,49.45
2019-04-07T05:23:30.681Z,60.35
2019-04-07T05:26:03.637Z,61.53
2019-04-07T05:28:36.873Z,49.90
2019-04-07T05:31:07.368Z,50.35
2019-04-07T05:33:40.038Z,52.80
2019-04-07T05:36:10.875Z,45.55
2019-04-07T05:38:42.079Z,46.42
2019-04-07T05:41:15.663Z,42.17
2019-04-07T05:43:49.129Z,39.78
2019-04-07T05:46:22.809Z,58.08
2019-04-07T05:48:53.457Z,53.35
2019-04-07T05:51:29.868Z,42.38
2019-04-07T05:53:59.269Z,40.33
2019-04-07T05:56:33.218Z,49.13
2019-04-07T05:59:03.849Z,35.13
2019-04-07T06:01:34.678Z,29.42
2019-04-07T06:04:06.697Z,26.02
2019-04-07T06:06:40.778Z,27.60
2019-04-07T06:09:10.154Z,33.40
2019-04-07T06:11:40.927Z,28.83
2019-04-07T06:14:15.096Z,28.32
2019-04-07T06:16:46.934Z,30.10
2019-04-07T06:19:18.234Z,30.60
2019-04-07T06:21:49.907Z,24.50
2019-04-07T06:24:22.292Z,23.35
2019-04-07T06:26:53.312Z,24.85
2019-04-07T06:29:26.338Z,20.97
2019-04-07T06:32:02.323Z,21.65
2019-04-07T06:34:32.650Z,26.70
2019-04-07T06:37:04.479Z,21.37
2019-04-07T06:39:35.395Z,28.23
2019-04-07T06:42:06.468Z,23.92
2019-04-07T06:44:37.739Z,20.27
2019-04-07T06:47:17.990Z,21.23
2019-04-07T06:49:56.643Z,23.70
2019-04-07T06:52:29.000Z,27.45
2019-04-07T06:55:19.064Z,20.23
2019-04-07T06:58:08.455Z,22.62
2019-04-07T07:00:58.331Z,21.48
2019-04-07T07:03:47.627Z,19.40
2019-04-07T07:06:24.090Z,24.67
2019-04-07T07:09:00.810Z,23.70
2019-04-07T07:11:40.689Z,21.52
2019-04-07T07:14:14.420Z,19.65
2019-04-07T07:16:49.960Z,17.70
2019-04-07T07:19:27.453Z,24.67
2019-04-07T07:22:13.172Z,21.50
2019-04-07T07:24:42.776Z,25.15
2019-04-07T07:27:13.912Z,20.35
2019-04-07T07:29:47.291Z,16.70
2019-04-07T07:32:18.654Z,24.98
2019-04-07T07:34:50.764Z,17.40
2019-04-07T07:37:22.964Z,20.00
2019-04-07T07:39:56.371Z,19.20
2019-04-07T07:42:27.773Z,20.65
2019-04-07T07:44:58.867Z,18.35
2019-04-07T07:47:30.536Z,17.45
2019-04-07T07:50:04.900Z,25.12
2019-04-07T07:52:35.133Z,20.45
2019-04-07T07:55:07.598Z,17.60
2019-04-07T07:57:38.645Z,24.12
2019-04-07T08:00:10.337Z,21.20
2019-04-07T08:05:13.626Z,22.48
2019-04-07T08:07:48.201Z,28.32
2019-04-07T08:10:18.704Z,25.92
2019-04-07T08:12:49.653Z,21.68
2019-04-07T08:15:25.409Z,15.63
2019-04-07T08:17:53.179Z,17.77
2019-04-07T08:20:24.602Z,24.00
2019-04-07T08:22:56.235Z,35.55
2019-04-07T08:25:28.127Z,30.40
2019-04-07T08:28:03.720Z,24.47
2019-04-07T08:30:33.599Z,40.65
2019-04-07T08:33:04.895Z,31.65
2019-04-07T08:35:39.480Z,38.13
2019-04-07T08:38:11.050Z,30.77
2019-04-07T08:40:41.721Z,28.85
2019-04-07T08:43:12.741Z,19.87
2019-04-07T08:45:44.900Z,29.95
2019-04-07T08:48:18.203Z,21.97
2019-04-07T08:50:48.606Z,23.52
2019-04-07T08:53:19.625Z,29.85
2019-04-07T08:55:54.392Z,17.95
2019-04-07T08:58:27.870Z,20.60
2019-04-07T09:00:57.451Z,20.70
2019-04-07T09:03:29.158Z,26.48
2019-04-07T09:05:59.884Z,18.12
2019-04-07T09:08:34.666Z,20.00
2019-04-07T09:11:05.371Z,32.28
2019-04-07T09:13:37.335Z,17.62
2019-04-07T09:16:20.018Z,17.92
2019-04-07T09:19:09.498Z,14.65
2019-04-07T09:21:58.421Z,15.83
2019-04-07T09:24:48.306Z,21.90
2019-04-07T09:27:30.006Z,15.05
2019-04-07T09:30:05.990Z,16.00
2019-04-07T09:32:55.861Z,18.27
2019-04-07T09:35:28.528Z,16.85
2019-04-07T09:38:03.997Z,20.10
2019-04-07T09:40:36.133Z,20.80
2019-04-07T09:43:26.172Z,15.08
2019-04-07T09:45:59.462Z,16.30
2019-04-07T09:48:42.836Z,23.45
2019-04-07T09:51:25.443Z,18.70
2019-04-07T09:53:57.780Z,17.95
2019-04-07T09:56:49.686Z,21.25
2019-04-07T09:59:35.018Z,91.22
2019-04-07T10:02:08.202Z,14.90
2019-04-07T10:04:55.764Z,12.88
2019-04-07T10:07:44.733Z,17.02
2019-04-07T10:10:25.051Z,23.50
2019-04-07T10:13:01.953Z,17.98
2019-04-07T10:15:40.142Z,15.32
2019-04-07T10:18:13.115Z,16.73
2019-04-07T10:20:49.198Z,21.48
2019-04-07T10:23:34.156Z,15.23
2019-04-07T10:26:22.880Z,16.90
2019-04-07T10:28:55.414Z,13.30
2019-04-07T10:31:37.635Z,16.55
2019-04-07T10:34:13.452Z,19.62
2019-04-07T10:36:46.319Z,14.20
2019-04-07T10:39:18.786Z,16.15
2019-04-07T10:42:08.834Z,11.53
2019-04-07T10:44:43.859Z,17.23
2019-04-07T10:47:34.810Z,15.50
2019-04-07T10:50:23.359Z,14.98
2019-04-07T10:53:12.632Z,15.90
2019-04-07T10:56:02.233Z,16.35
2019-04-07T10:58:41.457Z,15.53
2019-04-07T11:01:20.988Z,17.85
2019-04-07T11:03:59.420Z,12.40
2019-04-07T11:06:48.348Z,17.20
2019-04-07T11:09:31.944Z,13.45
2019-04-07T11:12:21.047Z,16.85
2019-04-07T11:14:54.749Z,13.00
2019-04-07T11:17:33.803Z,13.38
2019-04-07T11:20:08.388Z,13.18
2019-04-07T11:22:57.674Z,19.15
2019-04-07T11:25:47.724Z,16.73
2019-04-07T11:28:32.711Z,13.50
2019-04-07T11:31:17.889Z,16.30
2019-04-07T11:33:52.502Z,24.20
2019-04-07T11:36:25.480Z,20.37
2019-04-07T11:41:52.655Z,10.20
2019-04-07T11:44:41.206Z,12.63
2019-04-07T11:47:28.719Z,25.32
2019-04-07T11:50:02.077Z,12.47
2019-04-07T11:52:40.863Z,13.83
2019-04-07T11:55:19.360Z,11.93
2019-04-07T11:58:06.425Z,20.65
2019-04-07T12:00:47.343Z,12.82
2019-04-07T12:03:20.085Z,24.20
2019-04-07T12:05:54.033Z,11.93
2019-04-07T12:08:42.713Z,17.87
2019-04-07T12:11:24.609Z,12.68
2019-04-07T12:14:00.854Z,12.93
2019-04-07T12:16:49.158Z,13.38
2019-04-07T12:19:23.867Z,14.65
2019-04-07T12:22:08.699Z,20.20
2019-04-07T12:24:39.279Z,17.17
2019-04-07T12:30:05.561Z,18.48
2019-04-07T12:32:55.533Z,13.88
2019-04-07T12:35:36.914Z,14.18
2019-04-07T12:38:19.265Z,14.63
2019-04-07T12:41:13.377Z,12.10
2019-04-07T12:43:57.137Z,15.88
2019-04-07T12:46:46.467Z,15.15
2019-04-07T12:49:33.305Z,13.78
2019-04-07T12:52:17.445Z,11.35
2019-04-07T12:55:07.017Z,13.83
2019-04-07T12:57:45.877Z,18.07
2019-04-07T13:00:19.145Z,13.95
2019-04-07T13:03:11.682Z,9.90
2019-04-07T13:05:44.679Z,11.85
2019-04-07T13:08:17.987Z,12.80
2019-04-07T13:10:52.659Z,16.95
2019-04-07T13:13:41.881Z,13.30
2019-04-07T13:16:26.279Z,12.88
2019-04-07T13:21:30.645Z,12.75
2019-04-07T13:24:28.976Z,18.07
2019-04-07T13:27:04.009Z,13.72
2019-04-07T13:29:41.144Z,10.40
2019-04-07T13:32:13.231Z,11.65
2019-04-07T13:35:02.065Z,17.90
2019-04-07T13:37:38.321Z,13.43
2019-04-07T13:40:14.331Z,14.03
2019-04-07T13:42:59.067Z,14.07
2019-04-07T13:45:30.140Z,15.70
2019-04-07T13:48:15.832Z,16.90
2019-04-07T13:50:49.202Z,11.12
2019-04-07T13:53:37.847Z,14.60
2019-04-07T13:56:17.632Z,15.03
2019-04-07T13:58:54.364Z,14.60
2019-04-07T14:01:30.297Z,12.47
2019-04-07T14:04:07.824Z,13.53
2019-04-07T14:06:44.935Z,13.75
2019-04-07T14:09:34.098Z,15.35
2019-04-07T14:12:12.530Z,11.80
2019-04-07T14:14:47.217Z,12.33
2019-04-07T14:17:20.838Z,20.68
2019-04-07T14:22:32.139Z,16.23
2019-04-07T14:25:20.708Z,14.10
2019-04-07T14:28:12.862Z,14.25
2019-04-07T14:30:57.708Z,16.97
2019-04-07T14:33:42.524Z,18.52
2019-04-07T14:36:16.136Z,19.12
2019-04-07T14:38:48.648Z,17.67
2019-04-07T14:41:31.267Z,21.62
2019-04-07T14:44:11.008Z,21.85
2019-04-07T14:46:44.820Z,13.35
2019-04-07T14:49:35.822Z,16.52
2019-04-07T14:52:11.050Z,13.72
2019-04-07T14:55:01.454Z,17.25
2019-04-07T14:57:52.384Z,18.73
2019-04-07T15:00:42.916Z,15.75
2019-04-07T15:03:13.905Z,15.25
2019-04-07T15:05:49.510Z,17.77
2019-04-07T15:08:26.505Z,15.55
2019-04-07T15:10:59.707Z,24.55
2019-04-07T15:13:32.174Z,20.17
2019-04-07T15:16:03.532Z,14.77
2019-04-07T15:18:34.351Z,18.23
2019-04-07T15:21:06.824Z,24.02
2019-04-07T15:23:40.003Z,18.23
2019-04-07T15:26:14.621Z,21.75
2019-04-07T15:28:44.674Z,23.52
2019-04-07T15:31:18.347Z,17.17
2019-04-07T15:33:50.926Z,20.08
2019-04-07T15:36:22.122Z,32.33
2019-04-07T15:38:55.431Z,22.10
2019-04-07T15:41:25.475Z,24.98
2019-04-07T15:43:57.236Z,18.90
2019-04-07T15:46:28.841Z,15.53
2019-04-07T15:49:00.766Z,18.95
2019-04-07T15:51:34.975Z,21.30
2019-04-07T15:54:04.173Z,20.40
2019-04-07T15:56:35.707Z,23.22
2019-04-07T15:59:06.246Z,18.40
2019-04-07T16:01:38.721Z,21.93
2019-04-07T16:04:10.269Z,24.57
2019-04-07T16:06:47.032Z,32.10
2019-04-07T16:09:29.688Z,33.53
2019-04-07T16:11:50.819Z,30.55
2019-04-07T16:14:23.024Z,32.45
2019-04-07T16:16:54.791Z,21.70
2019-04-07T16:19:37.401Z,28.70
2019-04-07T16:21:58.192Z,18.27
2019-04-07T16:24:31.318Z,29.32
2019-04-07T16:27:05.418Z,19.37
2019-04-07T16:29:36.490Z,24.55
2019-04-07T16:32:08.158Z,18.90
2019-04-07T16:34:42.125Z,19.23
2019-04-07T16:37:11.733Z,16.35
2019-04-07T16:39:42.741Z,23.83
2019-04-07T16:42:15.322Z,21.20
2019-04-07T16:44:46.049Z,22.50
2019-04-07T16:47:22.481Z,17.42
2019-04-07T16:49:51.199Z,18.45
2019-04-07T16:52:24.415Z,22.95
2019-04-07T16:54:56.042Z,27.37
2019-04-07T16:57:29.884Z,26.42
2019-04-07T17:00:00.187Z,21.50
2019-04-07T17:02:31.646Z,22.20
2019-04-07T17:05:02.252Z,21.55
2019-04-07T17:07:34.042Z,20.85
2019-04-07T17:10:06.889Z,24.57
2019-04-07T17:12:40.608Z,34.30
2019-04-07T17:15:11.414Z,29.70
2019-04-07T17:17:43.519Z,43.08
2019-04-07T17:20:14.699Z,41.65
2019-04-07T17:22:47.738Z,24.55
2019-04-07T17:25:18.360Z,28.42
2019-04-07T17:27:49.773Z,28.30
2019-04-07T17:30:24.266Z,39.25
2019-04-07T17:35:24.553Z,39.25
2019-04-07T17:38:01.718Z,29.52
2019-04-07T17:40:31.943Z,33.05
2019-04-07T17:45:48.095Z,39.40
2019-04-07T17:48:38.508Z,42.08
2019-04-07T17:51:07.194Z,35.90
2019-04-07T17:53:54.043Z,44.70
2019-04-07T17:56:30.905Z,50.23
2019-04-07T17:59:14.258Z,56.10
2019-04-07T18:01:52.407Z,33.55
2019-04-07T18:04:25.114Z,44.98
2019-04-07T18:07:01.984Z,29.42
2019-04-07T18:09:32.816Z,45.28
2019-04-07T18:12:12.791Z,30.08
2019-04-07T18:14:43.737Z,31.33
2019-04-07T18:17:33.466Z,37.13
2019-04-07T18:20:08.908Z,25.68
2019-04-07T18:22:42.257Z,46.77
2019-04-07T18:25:14.727Z,41.63
2019-04-07T18:27:48.319Z,31.30
2019-04-07T18:33:05.415Z,29.75
2019-04-07T18:35:37.984Z,35.33
2019-04-07T18:38:27.501Z,39.53
2019-04-07T18:41:09.397Z,48.60
2019-04-07T18:43:50.667Z,37.03
2019-04-07T18:46:27.971Z,54.45
2019-04-07T18:49:04.868Z,37.28
2019-04-07T18:51:53.735Z,40.15
2019-04-07T18:54:38.892Z,60.92
2019-04-07T18:57:20.564Z,40.55
2019-04-07T19:00:08.570Z,37.42
2019-04-07T19:03:00.113Z,33.98
2019-04-07T19:05:45.807Z,32.58
2019-04-07T19:08:25.134Z,41.00
2019-04-07T19:11:10.816Z,31.68
2019-04-07T19:13:37.961Z,37.40
2019-04-07T19:16:19.381Z,33.55
2019-04-07T19:19:08.189Z,35.30
2019-04-07T19:21:55.416Z,34.80
2019-04-07T19:24:37.853Z,35.43
2019-04-07T19:27:30.128Z,31.07
2019-04-07T19:30:07.450Z,40.17
2019-04-07T19:32:40.048Z,47.58
2019-04-07T19:35:21.769Z,38.20
2019-04-07T19:37:54.391Z,43.58
2019-04-07T19:40:48.354Z,35.40
2019-04-07T19:43:39.904Z,35.33
2019-04-07T19:46:12.716Z,37.35
2019-04-07T19:48:52.177Z,29.25
2019-04-07T19:51:41.626Z,30.95
2019-04-07T19:54:18.025Z,33.42
2019-04-07T19:56:50.268Z,34.73
2019-04-07T19:59:31.899Z,36.00
2019-04-07T20:02:10.455Z,27.30
2019-04-07T20:04:45.831Z,30.02
2019-04-07T20:07:34.104Z,29.42
2019-04-07T20:10:23.718Z,40.52
2019-04-07T20:12:58.573Z,28.17
2019-04-07T20:15:43.145Z,29.25
2019-04-07T20:18:19.061Z,31.55
2019-04-07T20:21:13.218Z,34.15
2019-04-07T20:23:45.358Z,30.72
2019-04-07T20:29:06.608Z,28.60
2019-04-07T20:31:53.732Z,30.12
2019-04-07T20:34:26.788Z,29.40
2019-04-07T20:36:59.790Z,30.10
2019-04-07T20:39:36.569Z,25.95
2019-04-07T20:42:25.751Z,30.30
2019-04-07T20:45:04.232Z,30.32
2019-04-07T20:47:38.647Z,28.73
2019-04-07T20:50:28.100Z,26.48
2019-04-07T20:53:12.632Z,27.25
2019-04-07T20:55:49.575Z,24.02
2019-04-07T20:58:24.406Z,28.00
2019-04-07T21:01:10.041Z,24.55
2019-04-07T21:03:48.363Z,29.87
2019-04-07T21:06:34.260Z,25.25
2019-04-07T21:09:12.190Z,24.43
2019-04-07T21:12:02.983Z,27.52
2019-04-07T21:14:38.976Z,25.52
2019-04-07T21:17:29.672Z,31.87
2019-04-07T21:20:14.540Z,26.30
2019-04-07T21:23:04.667Z,31.05
2019-04-07T21:25:37.132Z,37.05
2019-04-07T21:28:18.685Z,39.95
2019-04-07T21:30:54.263Z,31.02
2019-04-07T21:33:44.846Z,34.65
2019-04-07T21:36:17.585Z,30.17
2019-04-07T21:38:55.167Z,30.55
2019-04-07T21:41:44.202Z,27.60
2019-04-07T21:44:17.483Z,30.77
2019-04-07T21:47:02.222Z,24.95
2019-04-07T21:49:41.799Z,26.82
2019-04-07T21:52:22.469Z,26.62
2019-04-07T21:54:58.210Z,26.95
2019-04-07T21:57:30.472Z,24.00
2019-04-07T22:00:21.182Z,27.17
2019-04-07T22:02:54.973Z,24.00
2019-04-07T22:05:34.977Z,21.52
2019-04-07T22:08:15.538Z,21.75
2019-04-07T22:10:44.766Z,24.30
2019-04-07T22:13:15.872Z,24.37
2019-04-07T22:15:51.893Z,19.82
2019-04-07T22:18:21.557Z,27.05
2019-04-07T22:20:54.822Z,23.18
2019-04-07T22:23:25.423Z,21.07
2019-04-07T22:25:57.082Z,19.48
2019-04-07T22:28:29.347Z,20.23
2019-04-07T22:31:01.507Z,19.60
2019-04-07T22:33:33.730Z,19.98
2019-04-07T22:36:05.856Z,21.50
2019-04-07T22:38:37.673Z,22.37
2019-04-07T22:41:10.071Z,21.95
2019-04-07T22:43:41.825Z,26.25
2019-04-07T22:46:19.507Z,23.32
2019-04-07T22:48:45.919Z,19.30
2019-04-07T22:51:17.020Z,21.05
2019-04-07T22:53:47.926Z,18.73
2019-04-07T22:56:18.766Z,18.52
2019-04-07T22:58:49.707Z,18.17
2019-04-07T23:01:23.043Z,20.10
2019-04-07T23:03:53.819Z,22.90
2019-04-07T23:06:25.381Z,17.23
2019-04-07T23:08:57.171Z,22.58
2019-04-07T23:11:29.996Z,23.40
2019-04-07T23:14:01.025Z,30.15
2019-04-07T23:16:32.506Z,34.05
2019-04-07T23:19:03.444Z,23.20
2019-04-07T23:21:34.377Z,19.62
2019-04-07T23:24:05.624Z,26.00
2019-04-07T23:26:38.226Z,23.07
2019-04-07T23:29:10.040Z,25.05
2019-04-07T23:31:40.962Z,21.27
2019-04-07T23:34:12.035Z,17.87
2019-04-07T23:36:43.620Z,20.85
2019-04-07T23:39:15.265Z,17.65
2019-04-07T23:41:46.584Z,22.65
2019-04-07T23:44:17.441Z,19.77
2019-04-07T23:46:48.955Z,20.52
2019-04-07T23:49:20.479Z,25.72
2019-04-07T23:51:51.666Z,22.45
2019-04-07T23:54:22.910Z,18.95
2019-04-07T23:56:54.153Z,20.70
2019-04-07T23:59:25.190Z,20.90
